Fes, Morocco
Current Conditions -  °F | °C
As of 11:00 AM on Monday 20 Oct 2014 (Local Time) from GMFF Reporting Station
Clear Clear  
Wind Chill: 32°   Ceiling: Unl
Heat Index: 32°   Visibility: 6mi
Dew Point:   Wind: 9mph
Humidity: 14%   Direction: 280°W
Pressure: 30.12"   Gusts: NA
Location:  34.05°N, 5°W
Report Text: GMFF 201000Z 28008KT 240V340 CAVOK 32/01 Q1020 NOSIG
Loading
Personal Weather Stations






























Interactive Weather Map
Tropical Storm Tracking
New forecast layout! Learn more

10-Day Weather Forecast

Advertisements
Track Severe Weather on mobile